Warsaw, Virginia
Current Conditions -  °F | °C
As of 10:15 PM on Monday 26 Jan 2015 (Local Time) from KXSA Reporting Station
Light Snow Light Snow  
Wind Chill: 26°   Ceiling: 700
Heat Index: 33°   Visibility: 1.7mi
Dew Point: 29°   Wind: 7mph
Humidity: 88%   Direction: 310°NW
Pressure: 29.71"   Gusts: NA
Location:  37.96°N, 76.76°W
Report Text: KXSA 270315Z AUTO 31006KT 1 3/4SM -SN OVC007 00/M01 A2971 RMK AO2 T00041014
Loading
Personal Weather Stations






























Interactive Weather Map New forecast layout! Learn more

10-Day Weather Forecast

Advertisements
Track Severe Weather on mobile